createdAt,value
2022-10-21T00:02:11.891Z,88.85
2022-10-21T00:04:41.656Z,88.80
2022-10-21T00:07:11.705Z,89.52
2022-10-21T00:09:41.466Z,89.52
2022-10-21T00:12:12.080Z,88.83
2022-10-21T00:14:41.837Z,88.83
2022-10-21T00:17:11.565Z,88.84
2022-10-21T00:19:42.684Z,87.68
2022-10-21T00:22:12.765Z,87.73
2022-10-21T00:24:42.597Z,87.62
2022-10-21T00:27:12.640Z,87.71
2022-10-21T00:29:42.693Z,87.59
2022-10-21T00:32:12.441Z,87.62
2022-10-21T00:34:43.269Z,87.62
2022-10-21T00:37:13.895Z,87.72
2022-10-21T00:39:43.709Z,87.74
2022-10-21T00:42:19.225Z,88.42
2022-10-21T00:45:09.522Z,87.68
2022-10-21T00:47:51.215Z,86.86
2022-10-21T00:50:53.544Z,88.29
2022-10-21T00:53:24.238Z,88.39
2022-10-21T00:55:57.245Z,87.36
2022-10-21T00:58:29.541Z,87.32
2022-10-21T01:01:01.617Z,87.89
2022-10-21T01:03:32.896Z,87.40
2022-10-21T01:06:05.584Z,87.45
2022-10-21T01:08:36.183Z,87.19
2022-10-21T01:11:08.429Z,88.00
2022-10-21T01:13:50.037Z,87.99
2022-10-21T01:16:30.980Z,88.40
2022-10-21T01:19:15.359Z,87.96
2022-10-21T01:22:06.028Z,88.43
2022-10-21T01:24:50.644Z,88.16
2022-10-21T01:27:26.727Z,88.00
2022-10-21T01:30:10.726Z,88.42
2022-10-21T01:33:01.651Z,89.22
2022-10-21T01:35:54.770Z,90.07
2022-10-21T01:38:27.314Z,89.48
2022-10-21T01:41:17.918Z,88.92
2022-10-21T01:44:02.528Z,89.43
2022-10-21T01:46:38.171Z,89.54
2022-10-21T01:49:16.682Z,89.21
2022-10-21T01:51:47.072Z,89.49
2022-10-21T01:54:25.636Z,88.80
2022-10-21T01:56:57.334Z,89.08
2022-10-21T01:59:29.658Z,89.69
2022-10-21T02:02:02.818Z,89.39
2022-10-21T02:04:34.860Z,89.73
2022-10-21T02:07:05.213Z,90.64
2022-10-21T02:09:34.962Z,90.18
2022-10-21T02:12:07.420Z,91.06
2022-10-21T02:14:45.511Z,90.38
2022-10-21T02:17:18.931Z,90.02
2022-10-21T02:19:48.713Z,89.89
2022-10-21T02:22:21.583Z,90.02
2022-10-21T02:25:03.070Z,90.07
2022-10-21T02:27:33.072Z,90.65
2022-10-21T02:30:03.345Z,90.60
2022-10-21T02:32:41.871Z,91.61
2022-10-21T02:35:26.479Z,91.30
2022-10-21T02:38:04.450Z,91.30
2022-10-21T02:40:40.057Z,91.44
2022-10-21T02:43:15.637Z,91.28
2022-10-21T02:45:48.318Z,92.17
2022-10-21T02:48:18.210Z,91.29
2022-10-21T02:50:47.709Z,91.29
2022-10-21T02:53:17.843Z,91.94
2022-10-21T02:55:49.235Z,92.01
2022-10-21T02:58:19.014Z,90.88
2022-10-21T03:00:48.841Z,91.89
2022-10-21T03:03:18.763Z,91.90
2022-10-21T03:05:48.746Z,91.69
2022-10-21T03:08:18.473Z,91.33
2022-10-21T03:10:53.044Z,91.33
2022-10-21T03:13:22.622Z,91.95
2022-10-21T03:15:52.839Z,92.27
2022-10-21T03:18:22.605Z,91.20
2022-10-21T03:20:53.338Z,90.93
2022-10-21T03:23:23.096Z,91.14
2022-10-21T03:25:52.870Z,90.75
2022-10-21T03:28:22.660Z,91.03
2022-10-21T03:30:52.408Z,90.25
2022-10-21T03:33:22.188Z,90.28
2022-10-21T03:35:51.995Z,89.42
2022-10-21T03:38:21.827Z,89.74
2022-10-21T03:40:52.298Z,91.36
2022-10-21T03:43:22.065Z,91.69
2022-10-21T03:45:51.835Z,90.84
2022-10-21T03:48:21.587Z,90.84
2022-10-21T03:50:52.105Z,90.57
2022-10-21T03:53:38.127Z,90.23
2022-10-21T03:55:56.681Z,90.83
2022-10-21T03:58:25.522Z,90.96
2022-10-21T04:00:56.206Z,91.40
2022-10-21T04:03:25.959Z,91.40
2022-10-21T04:05:55.786Z,92.08
2022-10-21T04:08:25.520Z,91.12
2022-10-21T04:10:56.816Z,90.96
2022-10-21T04:13:26.638Z,92.50
2022-10-21T04:15:58.929Z,91.24
2022-10-21T04:18:28.690Z,91.24
2022-10-21T04:20:58.440Z,91.54
2022-10-21T04:23:28.212Z,90.97
2022-10-21T04:25:57.998Z,91.38
2022-10-21T04:28:27.519Z,90.56
2022-10-21T04:30:57.279Z,90.62
2022-10-21T04:33:27.626Z,92.27
2022-10-21T04:35:59.082Z,92.27
2022-10-21T04:38:30.514Z,90.81
2022-10-21T04:41:02.855Z,90.76
2022-10-21T04:43:32.924Z,90.31
2022-10-21T04:46:02.693Z,91.12
2022-10-21T04:48:32.480Z,91.02
2022-10-21T04:51:02.239Z,90.88
2022-10-21T04:53:31.988Z,90.78
2022-10-21T04:56:01.819Z,90.91
2022-10-21T04:58:31.655Z,90.15
2022-10-21T05:01:01.509Z,90.34
2022-10-21T05:03:31.979Z,90.34
2022-10-21T05:06:01.702Z,90.31
2022-10-21T05:08:31.551Z,89.86
2022-10-21T05:11:02.349Z,90.12
2022-10-21T05:13:33.439Z,89.59
2022-10-21T05:16:04.737Z,91.16
2022-10-21T05:18:34.474Z,90.49
2022-10-21T05:21:04.503Z,89.95
2022-10-21T05:23:34.550Z,89.60
2022-10-21T05:26:07.056Z,89.59
2022-10-21T05:28:37.547Z,89.59
2022-10-21T05:31:07.303Z,90.47
2022-10-21T05:33:37.121Z,90.47
2022-10-21T05:36:08.591Z,89.83
2022-10-21T05:38:38.343Z,89.83
2022-10-21T05:41:08.107Z,89.95
2022-10-21T05:43:38.805Z,89.53
2022-10-21T05:48:39.864Z,89.82
2022-10-21T05:51:09.601Z,89.71
2022-10-21T05:53:39.811Z,89.22
2022-10-21T05:56:12.134Z,89.04
2022-10-21T05:58:41.867Z,89.04
2022-10-21T06:01:12.297Z,89.30
2022-10-21T06:03:42.094Z,89.48
2022-10-21T06:06:11.757Z,89.67
2022-10-21T06:08:41.399Z,89.16
2022-10-21T06:11:13.926Z,89.82
2022-10-21T06:13:44.532Z,89.52
2022-10-21T06:16:15.127Z,89.34
2022-10-21T06:18:45.119Z,89.46
2022-10-21T06:21:14.884Z,89.68
2022-10-21T06:23:44.774Z,89.79
2022-10-21T06:26:16.773Z,88.92
2022-10-21T06:28:46.497Z,89.18
2022-10-21T06:31:18.560Z,88.81
2022-10-21T06:33:48.790Z,89.67
2022-10-21T06:36:18.747Z,89.67
2022-10-21T06:38:48.578Z,89.05
2022-10-21T06:41:18.872Z,89.33
2022-10-21T06:43:48.612Z,89.92
2022-10-21T06:46:18.719Z,89.92
2022-10-21T06:48:48.249Z,88.93
2022-10-21T06:51:21.036Z,88.93
2022-10-21T06:53:56.543Z,88.83
2022-10-21T06:56:27.129Z,90.23
2022-10-21T06:58:58.989Z,89.58
2022-10-21T07:01:48.326Z,89.35
2022-10-21T07:04:10.796Z,89.54
2022-10-21T07:06:40.608Z,89.54
2022-10-21T07:09:10.933Z,89.42
2022-10-21T07:11:40.815Z,89.68
2022-10-21T07:14:13.264Z,89.40
2022-10-21T07:16:43.013Z,89.40
2022-10-21T07:19:12.753Z,89.29
2022-10-21T07:21:42.613Z,89.29
2022-10-21T07:24:12.197Z,88.69
2022-10-21T07:26:42.094Z,88.59
2022-10-21T07:29:11.875Z,88.59
2022-10-21T07:31:41.808Z,88.31
2022-10-21T07:34:13.375Z,88.10
2022-10-21T07:36:47.685Z,88.37
2022-10-21T07:39:19.005Z,87.69
2022-10-21T07:41:51.436Z,87.51
2022-10-21T07:44:22.717Z,88.96
2022-10-21T07:46:54.121Z,88.02
2022-10-21T07:49:25.537Z,87.56
2022-10-21T07:51:55.296Z,87.00
2022-10-21T07:54:25.162Z,87.28
2022-10-21T07:56:54.911Z,86.73
2022-10-21T07:59:25.352Z,86.23
2022-10-21T08:01:55.205Z,85.98
2022-10-21T08:04:27.414Z,85.97
2022-10-21T08:06:57.440Z,85.20
2022-10-21T08:09:27.381Z,85.25
2022-10-21T08:11:57.964Z,85.68
2022-10-21T08:14:27.683Z,85.25
2022-10-21T08:16:57.528Z,84.32
2022-10-21T08:19:28.919Z,84.70
2022-10-21T08:22:00.793Z,84.44
2022-10-21T08:24:30.542Z,84.53
2022-10-21T08:27:00.445Z,84.05
2022-10-21T08:29:30.566Z,83.90
2022-10-21T08:32:00.421Z,83.97
2022-10-21T08:34:30.168Z,84.43
2022-10-21T08:36:59.920Z,84.31
2022-10-21T08:39:29.752Z,84.60
2022-10-21T08:42:17.038Z,84.41
2022-10-21T08:44:52.422Z,84.41
2022-10-21T08:47:34.429Z,83.94
2022-10-21T08:50:19.047Z,83.58
2022-10-21T08:52:51.847Z,83.52
2022-10-21T08:55:33.327Z,83.61
2022-10-21T08:58:04.928Z,84.42
2022-10-21T09:00:40.264Z,84.86
2022-10-21T09:03:16.115Z,84.31
2022-10-21T09:05:49.140Z,84.11
2022-10-21T09:08:27.508Z,84.04
2022-10-21T09:11:05.734Z,84.15
2022-10-21T09:14:02.244Z,85.04
2022-10-21T09:16:52.483Z,84.82
2022-10-21T09:19:43.051Z,84.68
2022-10-21T09:22:39.406Z,84.16
2022-10-21T09:25:21.315Z,84.58
2022-10-21T09:27:56.747Z,84.14
2022-10-21T09:30:24.215Z,84.17
2022-10-21T09:32:59.484Z,83.91
2022-10-21T09:35:43.591Z,84.57
2022-10-21T09:38:19.480Z,84.57
2022-10-21T09:40:51.916Z,83.89
2022-10-21T09:43:24.715Z,83.97
2022-10-21T09:45:55.229Z,84.00
2022-10-21T09:49:06.927Z,84.19
2022-10-21T09:51:21.449Z,83.52
2022-10-21T09:53:57.063Z,83.48
2022-10-21T09:56:44.140Z,83.32
2022-10-21T09:59:21.226Z,82.66
2022-10-21T10:01:51.331Z,82.65
2022-10-21T10:04:26.828Z,82.30
2022-10-21T10:06:58.060Z,82.30
2022-10-21T10:09:37.422Z,82.14
2022-10-21T10:12:13.860Z,81.79
2022-10-21T10:14:46.369Z,81.30
2022-10-21T10:17:22.118Z,80.46
2022-10-21T10:20:14.842Z,80.32
2022-10-21T10:22:47.786Z,79.66
2022-10-21T10:25:24.953Z,79.23
2022-10-21T10:28:06.835Z,78.61
2022-10-21T10:30:45.234Z,78.36
2022-10-21T10:33:23.438Z,77.90
2022-10-21T10:35:58.693Z,77.79
2022-10-21T10:38:42.924Z,77.54
2022-10-21T10:41:15.408Z,77.11
2022-10-21T10:43:56.793Z,77.11
2022-10-21T10:46:32.027Z,77.46
2022-10-21T10:49:16.420Z,77.82
2022-10-21T10:51:50.923Z,78.42
2022-10-21T10:54:24.074Z,77.48
2022-10-21T10:56:58.959Z,77.59
2022-10-21T10:59:31.833Z,77.79
2022-10-21T11:02:11.404Z,77.38
2022-10-21T11:05:18.481Z,77.56
2022-10-21T11:07:52.994Z,77.62
2022-10-21T11:10:46.537Z,78.20
2022-10-21T11:13:19.347Z,78.20
2022-10-21T11:16:12.222Z,78.12
2022-10-21T11:19:11.979Z,77.62
2022-10-21T11:21:53.443Z,76.77
2022-10-21T11:24:25.953Z,76.60
2022-10-21T11:27:26.697Z,75.30
2022-10-21T11:30:05.249Z,74.99
2022-10-21T11:33:12.406Z,73.86
2022-10-21T11:35:57.809Z,73.72
2022-10-21T11:38:34.847Z,73.03
2022-10-21T11:41:27.213Z,74.33
2022-10-21T11:44:12.458Z,72.30
2022-10-21T11:47:05.749Z,72.88
2022-10-21T11:49:47.518Z,71.47
2022-10-21T11:52:45.036Z,71.03
2022-10-21T11:55:35.205Z,71.60
2022-10-21T11:58:12.053Z,70.85
2022-10-21T12:00:56.802Z,72.31
2022-10-21T12:03:29.587Z,71.75
2022-10-21T12:06:10.055Z,71.71
2022-10-21T12:08:57.514Z,69.72
2022-10-21T12:14:30.859Z,67.84
2022-10-21T12:17:01.056Z,67.37
2022-10-21T12:19:31.037Z,67.85
2022-10-21T12:22:01.417Z,67.85
2022-10-21T12:24:39.999Z,64.97
2022-10-21T12:27:18.724Z,65.83
2022-10-21T12:30:08.498Z,65.84
2022-10-21T12:33:02.349Z,66.37
2022-10-21T12:35:51.545Z,65.49
2022-10-21T12:38:44.993Z,64.20
2022-10-21T12:41:29.917Z,63.44
2022-10-21T12:44:05.359Z,64.76
2022-10-21T12:46:49.604Z,64.76
2022-10-21T12:49:32.474Z,65.59
2022-10-21T12:52:11.335Z,65.67
2022-10-21T12:54:49.730Z,65.64
2022-10-21T12:57:25.525Z,64.69
2022-10-21T13:00:14.139Z,64.69
2022-10-21T13:03:06.235Z,64.80
2022-10-21T13:05:41.752Z,64.97
2022-10-21T13:08:24.175Z,65.30
2022-10-21T13:11:08.695Z,66.07
2022-10-21T13:13:43.651Z,65.89
2022-10-21T13:16:25.109Z,66.12
2022-10-21T13:18:56.651Z,66.03
2022-10-21T13:21:32.121Z,66.03
2022-10-21T13:24:13.759Z,64.98
2022-10-21T13:27:06.427Z,64.98
2022-10-21T13:29:45.172Z,65.35
2022-10-21T13:32:21.778Z,65.11
2022-10-21T13:35:09.390Z,63.97
2022-10-21T13:37:45.284Z,63.38
2022-10-21T13:40:18.698Z,61.15
2022-10-21T13:42:51.559Z,61.44
2022-10-21T13:45:27.025Z,61.54
2022-10-21T13:48:05.466Z,62.67
2022-10-21T13:50:40.607Z,62.35
2022-10-21T13:53:34.965Z,63.08
2022-10-21T13:56:09.454Z,63.28
2022-10-21T13:58:40.578Z,63.24
2022-10-21T14:01:13.663Z,63.65
2022-10-21T14:03:43.933Z,62.95
2022-10-21T14:06:26.748Z,62.48
2022-10-21T14:08:56.850Z,62.22
2022-10-21T14:11:33.435Z,62.64
2022-10-21T14:14:04.307Z,63.27
2022-10-21T14:16:36.841Z,62.81
2022-10-21T14:19:09.605Z,63.04
2022-10-21T14:21:41.928Z,60.89
2022-10-21T14:24:36.150Z,60.41
2022-10-21T14:27:07.116Z,59.79
2022-10-21T14:29:37.488Z,59.19
2022-10-21T14:32:08.869Z,59.31
2022-10-21T14:34:41.722Z,60.10
2022-10-21T14:37:14.501Z,59.69
2022-10-21T14:39:44.239Z,58.83
2022-10-21T14:42:16.830Z,59.37
2022-10-21T14:44:48.147Z,59.81
2022-10-21T14:47:26.355Z,60.02
2022-10-21T14:50:01.063Z,59.81
2022-10-21T14:52:37.109Z,60.14
2022-10-21T14:55:11.215Z,60.47
2022-10-21T14:57:49.813Z,61.12
2022-10-21T15:00:34.557Z,60.43
2022-10-21T15:03:04.455Z,61.00
2022-10-21T15:05:47.873Z,61.51
2022-10-21T15:08:29.404Z,61.89
2022-10-21T15:11:12.075Z,61.89
2022-10-21T15:13:44.858Z,63.76
2022-10-21T15:16:22.166Z,63.76
2022-10-21T15:18:53.888Z,63.54
2022-10-21T15:21:38.262Z,63.30
2022-10-21T15:24:09.990Z,63.44
2022-10-21T15:26:42.066Z,64.29
2022-10-21T15:29:23.979Z,64.33
2022-10-21T15:31:54.019Z,64.43
2022-10-21T15:34:23.532Z,65.38
2022-10-21T15:36:53.506Z,65.94
2022-10-21T15:39:23.315Z,66.48
2022-10-21T15:41:55.172Z,66.93
2022-10-21T15:44:27.671Z,67.35
2022-10-21T15:47:00.705Z,67.08
2022-10-21T15:49:37.819Z,67.73
2022-10-21T15:52:10.864Z,68.29
2022-10-21T15:54:40.694Z,68.66
2022-10-21T15:57:21.978Z,68.38
2022-10-21T15:59:51.722Z,68.99
2022-10-21T16:02:21.194Z,69.19
2022-10-21T16:04:52.741Z,69.05
2022-10-21T16:07:25.335Z,69.57
2022-10-21T16:09:55.220Z,69.43
2022-10-21T16:12:24.854Z,69.31
2022-10-21T16:14:54.976Z,69.45
2022-10-21T16:17:26.339Z,69.74
2022-10-21T16:19:56.098Z,69.80
2022-10-21T16:22:25.876Z,70.38
2022-10-21T16:24:55.696Z,70.78
2022-10-21T16:27:43.437Z,71.32
2022-10-21T16:29:57.481Z,71.32
2022-10-21T16:32:27.381Z,71.64
2022-10-21T16:34:57.128Z,71.98
2022-10-21T16:37:28.564Z,72.16
2022-10-21T16:39:58.381Z,72.51
2022-10-21T16:42:28.169Z,72.75
2022-10-21T16:44:57.957Z,72.86
2022-10-21T16:47:27.710Z,72.82
2022-10-21T16:50:00.141Z,73.04
2022-10-21T16:52:29.899Z,73.54
2022-10-21T16:54:59.930Z,74.28
2022-10-21T16:57:29.679Z,74.28
2022-10-21T16:59:59.502Z,74.28
2022-10-21T17:02:29.610Z,74.78
2022-10-21T17:04:59.373Z,75.03
2022-10-21T17:07:30.746Z,75.40
2022-10-21T17:10:01.912Z,75.97
2022-10-21T17:12:33.216Z,75.91
2022-10-21T17:15:03.661Z,76.00
2022-10-21T17:17:33.754Z,75.68
2022-10-21T17:20:03.738Z,76.22
2022-10-21T17:22:33.249Z,75.90
2022-10-21T17:25:03.052Z,76.06
2022-10-21T17:27:32.534Z,75.75
2022-10-21T17:30:02.320Z,75.84
2022-10-21T17:32:32.185Z,75.93
2022-10-21T17:35:02.053Z,76.30
2022-10-21T17:37:32.128Z,76.03
2022-10-21T17:40:01.869Z,76.03
2022-10-21T17:42:31.912Z,76.37
2022-10-21T17:45:03.797Z,76.46
2022-10-21T17:47:33.736Z,76.46
2022-10-21T17:50:04.050Z,76.86
2022-10-21T17:52:33.893Z,76.92
2022-10-21T17:55:04.423Z,77.11
2022-10-21T17:57:34.614Z,76.93
2022-10-21T18:00:06.434Z,77.68
2022-10-21T18:02:38.354Z,77.55
2022-10-21T18:05:10.568Z,77.63
2022-10-21T18:07:41.033Z,77.74
2022-10-21T18:10:10.929Z,77.74
2022-10-21T18:12:40.950Z,78.26
2022-10-21T18:15:11.052Z,78.66
2022-10-21T18:17:41.398Z,79.19
2022-10-21T18:20:13.786Z,79.32
2022-10-21T18:22:43.542Z,79.03
2022-10-21T18:25:13.108Z,78.63
2022-10-21T18:30:12.932Z,78.01
2022-10-21T18:32:43.018Z,77.86
2022-10-21T18:35:12.689Z,78.04
2022-10-21T18:37:43.409Z,77.71
2022-10-21T18:40:15.456Z,78.03
2022-10-21T18:42:45.923Z,77.96
2022-10-21T18:45:15.627Z,78.34
2022-10-21T18:47:47.041Z,78.50
2022-10-21T18:50:17.637Z,77.68
2022-10-21T18:52:47.240Z,77.59
2022-10-21T18:55:16.998Z,78.40
2022-10-21T18:57:46.795Z,78.03
2022-10-21T19:00:16.587Z,78.06
2022-10-21T19:02:46.339Z,78.25
2022-10-21T19:05:15.855Z,78.22
2022-10-21T19:07:45.844Z,78.81
2022-10-21T19:10:15.633Z,78.80
2022-10-21T19:12:45.669Z,78.77
2022-10-21T19:15:15.371Z,78.29
2022-10-21T19:17:45.144Z,78.89
2022-10-21T19:20:17.407Z,78.48
2022-10-21T19:22:47.702Z,78.80
2022-10-21T19:25:17.963Z,79.15
2022-10-21T19:27:47.771Z,78.59
2022-10-21T19:30:18.806Z,78.63
2022-10-21T19:32:48.825Z,78.79
2022-10-21T19:35:18.997Z,78.66
2022-10-21T19:37:48.718Z,78.34
2022-10-21T19:40:18.254Z,78.32
2022-10-21T19:42:48.162Z,78.84
2022-10-21T19:45:18.109Z,78.36
2022-10-21T19:47:47.656Z,77.85
2022-10-21T19:50:18.081Z,77.67
2022-10-21T19:52:47.826Z,78.10
2022-10-21T19:55:19.062Z,77.90
2022-10-21T19:57:49.091Z,77.82
2022-10-21T20:00:18.609Z,77.67
2022-10-21T20:02:48.647Z,77.65
2022-10-21T20:05:18.320Z,77.74
2022-10-21T20:07:48.134Z,77.75
2022-10-21T20:10:19.587Z,78.16
2022-10-21T20:12:49.057Z,78.04
2022-10-21T20:15:19.030Z,78.35
2022-10-21T20:17:48.979Z,77.85
2022-10-21T20:20:18.683Z,78.11
2022-10-21T20:22:48.749Z,78.39
2022-10-21T20:25:18.985Z,78.74
2022-10-21T20:27:49.010Z,78.57
2022-10-21T20:30:19.148Z,79.37
2022-10-21T20:32:50.823Z,78.43
2022-10-21T20:35:21.152Z,78.52
2022-10-21T20:37:51.217Z,78.86
2022-10-21T20:40:20.921Z,78.90
2022-10-21T20:42:51.004Z,79.12
2022-10-21T20:45:21.173Z,79.12
2022-10-21T20:47:50.677Z,79.03
2022-10-21T20:50:20.110Z,78.97
2022-10-21T20:52:50.225Z,79.14
2022-10-21T20:55:20.121Z,79.61
2022-10-21T20:57:50.152Z,79.72
2022-10-21T21:00:19.942Z,79.72
2022-10-21T21:02:49.756Z,79.59
2022-10-21T21:05:19.851Z,79.71
2022-10-21T21:07:49.608Z,79.85
2022-10-21T21:10:19.344Z,80.06
2022-10-21T21:12:49.117Z,80.23
2022-10-21T21:15:18.890Z,80.63
2022-10-21T21:17:51.922Z,79.43
2022-10-21T21:20:21.349Z,79.93
2022-10-21T21:22:51.113Z,79.95
2022-10-21T21:25:20.855Z,80.36
2022-10-21T21:27:50.888Z,80.52
2022-10-21T21:30:20.995Z,80.00
2022-10-21T21:32:50.717Z,80.00
2022-10-21T21:35:20.457Z,80.72
2022-10-21T21:37:50.262Z,80.53
2022-10-21T21:40:20.301Z,80.39
2022-10-21T21:42:50.032Z,80.29
2022-10-21T21:45:19.487Z,80.12
2022-10-21T21:47:49.243Z,80.16
2022-10-21T21:50:19.334Z,80.05
2022-10-21T21:52:49.361Z,80.54
2022-10-21T21:55:19.468Z,80.43
2022-10-21T21:57:49.201Z,80.28
2022-10-21T22:00:18.912Z,80.52
2022-10-21T22:02:48.662Z,80.34
2022-10-21T22:05:22.470Z,80.78
2022-10-21T22:07:51.365Z,80.77
2022-10-21T22:10:21.111Z,80.57
2022-10-21T22:12:51.167Z,80.86
2022-10-21T22:15:43.362Z,80.77
2022-10-21T22:17:53.778Z,80.98
2022-10-21T22:20:23.653Z,80.82
2022-10-21T22:22:53.443Z,80.28
2022-10-21T22:25:22.894Z,80.98
2022-10-21T22:27:52.936Z,81.15
2022-10-21T22:30:22.710Z,81.21
2022-10-21T22:32:52.754Z,81.06
2022-10-21T22:35:22.190Z,81.13
2022-10-21T22:37:52.262Z,81.39
2022-10-21T22:40:21.860Z,81.16
2022-10-21T22:42:51.665Z,80.57
2022-10-21T22:45:21.394Z,80.98
2022-10-21T22:47:51.438Z,81.26
2022-10-21T22:50:21.526Z,81.32
2022-10-21T22:52:51.278Z,81.11
2022-10-21T22:55:21.112Z,81.61
2022-10-21T22:57:50.922Z,81.80
2022-10-21T23:00:20.657Z,81.69
2022-10-21T23:02:50.505Z,81.18
2022-10-21T23:05:19.947Z,81.82
2022-10-21T23:07:49.901Z,82.18
2022-10-21T23:10:23.316Z,81.73
2022-10-21T23:12:53.080Z,81.82
2022-10-21T23:15:22.768Z,81.79
2022-10-21T23:17:52.540Z,81.92
2022-10-21T23:20:22.259Z,82.03
2022-10-21T23:22:52.010Z,82.49
2022-10-21T23:25:22.897Z,82.11
2022-10-21T23:27:52.712Z,82.56
2022-10-21T23:30:22.474Z,82.56
2022-10-21T23:32:52.310Z,83.09
2022-10-21T23:35:23.677Z,82.91
2022-10-21T23:37:53.427Z,82.74
2022-10-21T23:40:23.190Z,82.78
2022-10-21T23:42:53.229Z,82.91
2022-10-21T23:45:22.962Z,83.37
2022-10-21T23:47:53.098Z,83.37
2022-10-21T23:50:23.067Z,84.04
2022-10-21T23:52:52.522Z,83.66
2022-10-21T23:55:22.026Z,83.64
2022-10-21T23:57:51.822Z,83.44
